Time;durP1;ratioP1;P1;durP2;ratioP2;P2;SDS_P1;SDS_P2;PMS_P1;PMS_P2;Temp;Humidity;BMP_temperature;BMP_pressure;BME280_temperature;BME280_humidity;BME280_pressure;Samples;Min_cycle;Max_cycle;Signal;HPM_P1;HPM_P2
2023/03/23 00:01:12;;;;;;;1.83;0.75;;;13.00;99.90;;;12.47;100.00;96849.44;5033658;28;20437;-73
2023/03/23 00:03:42;;;;;;;1.55;0.60;;;13.00;99.90;;;12.58;100.00;96852.22;5030341;28;20408;-73
2023/03/23 00:06:08;;;;;;;1.65;0.60;;;13.00;99.90;;;12.49;100.00;96855.38;5044362;28;20500;-74
2023/03/23 00:08:45;;;;;;;1.45;0.50;;;13.00;99.90;;;12.55;100.00;96858.44;5026336;28;20134;-73
2023/03/23 00:11:23;;;;;;;1.88;0.68;;;13.00;99.90;;;12.57;100.00;96847.94;5025915;28;20048;-73
2023/03/23 00:13:51;;;;;;;4.38;0.80;;;13.00;99.90;;;12.48;100.00;96853.72;5013229;28;20041;-72
2023/03/23 00:16:28;;;;;;;3.45;0.77;;;13.10;99.90;;;12.48;100.00;96851.94;5049809;28;20150;-73
2023/03/23 00:18:56;;;;;;;3.65;0.73;;;13.10;99.90;;;12.50;100.00;96847.50;5039003;28;20101;-73
2023/03/23 00:21:32;;;;;;;2.20;0.60;;;13.10;99.90;;;12.52;100.00;96863.00;5027128;28;20053;-75
2023/03/23 00:24:03;;;;;;;2.47;0.60;;;13.00;99.90;;;12.41;100.00;96860.25;5030081;28;20415;-74
2023/03/23 00:26:33;;;;;;;2.45;0.70;;;13.10;99.90;;;12.50;100.00;96851.88;5046518;28;20048;-74
2023/03/23 00:29:00;;;;;;;1.75;0.70;;;;;;;12.64;100.00;96861.41;5043058;28;20076;-74
2023/03/23 00:31:34;;;;;;;2.15;0.70;;;13.10;99.90;;;12.62;100.00;96847.66;5046766;28;20098;-74
2023/03/23 00:34:03;;;;;;;1.95;0.60;;;13.10;99.90;;;12.67;100.00;96856.00;5026672;28;20052;-73
2023/03/23 00:36:34;;;;;;;1.55;0.80;;;13.10;99.90;;;12.57;100.00;96845.34;5013192;28;20057;-73
2023/03/23 00:39:04;;;;;;;2.10;0.60;;;13.10;99.90;;;12.51;100.00;96837.91;5047842;28;20052;-74
2023/03/23 00:41:32;;;;;;;2.22;0.60;;;13.10;99.90;;;12.46;100.00;96839.97;5057568;28;20064;-73
2023/03/23 00:44:00;;;;;;;2.17;0.77;;;13.10;99.90;;;12.59;100.00;96840.03;5047107;28;20044;-73
2023/03/23 00:46:27;;;;;;;1.92;0.80;;;13.00;99.90;;;12.42;100.00;96833.28;5023597;28;20076;-73
2023/03/23 00:48:56;;;;;;;1.42;0.60;;;13.00;99.90;;;12.48;100.00;96825.91;5042546;28;20125;-73
2023/03/23 00:51:23;;;;;;;4.10;0.60;;;13.00;99.90;;;12.50;100.00;96831.88;5027252;28;20124;-73
2023/03/23 00:53:50;;;;;;;3.97;0.75;;;13.00;99.90;;;12.42;100.00;96825.47;5013321;28;20045;-73
2023/03/23 00:56:16;;;;;;;1.33;0.75;;;13.00;99.90;;;12.44;100.00;96818.41;5046949;28;20080;-73
2023/03/23 00:58:42;;;;;;;1.38;0.68;;;13.10;99.90;;;12.56;100.00;96815.84;5028359;28;20080;-73
2023/03/23 01:01:08;;;;;;;1.48;0.60;;;13.00;99.90;;;12.45;100.00;96817.44;5027918;28;20565;-73
2023/03/23 01:03:35;;;;;;;1.55;0.63;;;13.00;99.90;;;12.49;100.00;96806.75;5037104;28;20064;-73
2023/03/23 01:06:12;;;;;;;1.25;0.50;;;13.00;99.90;;;12.46;100.00;96812.16;5025154;28;20037;-73
2023/03/23 01:08:49;;;;;;;1.83;0.70;;;13.00;99.90;;;12.42;100.00;96800.25;5028995;28;20071;-73
2023/03/23 01:11:16;;;;;;;2.55;0.60;;;13.00;99.90;;;12.42;100.00;96805.47;5044122;28;20112;-73
2023/03/23 01:13:45;;;;;;;1.55;0.50;;;13.00;99.90;;;12.39;100.00;96803.06;5034411;28;20045;-73
2023/03/23 01:16:11;;;;;;;2.53;0.60;;;13.00;99.90;;;12.62;100.00;96806.00;5032333;28;20121;-74
2023/03/23 01:18:39;;;;;;;2.10;0.70;;;13.00;99.90;;;12.46;100.00;96798.31;5031984;28;20049;-73
2023/03/23 01:21:15;;;;;;;1.48;0.60;;;13.00;99.90;;;12.44;100.00;96808.81;5042924;28;20463;-73
2023/03/23 01:23:43;;;;;;;1.73;0.52;;;13.00;99.90;;;12.53;100.00;96802.22;5030090;28;20055;-73
2023/03/23 01:26:13;;;;;;;2.17;0.73;;;13.00;99.90;;;12.35;100.00;96796.38;5028984;28;20492;-73
2023/03/23 01:28:40;;;;;;;1.50;0.73;;;12.90;99.90;;;12.35;100.00;96775.56;5046958;28;20048;-73
2023/03/23 01:31:12;;;;;;;2.72;1.10;;;12.90;99.90;;;12.25;100.00;96772.69;5047122;28;20051;-73
2023/03/23 01:33:39;;;;;;;2.70;0.70;;;12.90;99.90;;;12.21;100.00;96759.97;5029138;28;20049;-73
2023/03/23 01:36:10;;;;;;;2.75;0.80;;;12.90;99.90;;;12.23;100.00;96763.31;5008983;28;20167;-73
2023/03/23 01:38:36;;;;;;;1.52;0.90;;;12.90;99.90;;;12.08;100.00;96765.09;5046665;28;20055;-73
2023/03/23 01:41:04;;;;;;;2.10;0.93;;;12.80;99.90;;;12.08;100.00;96773.72;5028920;28;20119;-73
2023/03/23 01:43:30;;;;;;;1.95;0.70;;;12.70;99.90;;;12.10;100.00;96776.25;5034702;28;20091;-73
2023/03/23 01:45:57;;;;;;;1.83;0.70;;;12.70;99.90;;;12.10;100.00;96777.06;5022838;28;20110;-73
2023/03/23 01:48:37;;;;;;;1.27;0.60;;;12.80;99.90;;;12.07;100.00;96787.69;5012873;28;20037;-75
2023/03/23 01:51:18;;;;;;;1.77;0.77;;;12.80;99.90;;;12.19;100.00;96796.50;5040626;28;20496;-73
2023/03/23 01:53:55;;;;;;;1.85;0.63;;;12.70;99.90;;;12.13;100.00;96786.44;5026681;28;20067;-75
2023/03/23 01:56:29;;;;;;;2.65;0.60;;;12.70;99.90;;;12.14;100.00;96801.16;5029918;28;20057;-73
2023/03/23 01:58:56;;;;;;;3.38;0.75;;;12.60;99.90;;;12.07;100.00;96789.44;5031320;28;20522;-74
2023/03/23 02:01:27;;;;;;;2.13;0.75;;;12.60;99.90;;;12.03;100.00;96793.16;5043383;28;20386;-74
2023/03/23 02:03:55;;;;;;;1.67;0.73;;;12.60;99.90;;;12.02;100.00;96787.13;5042878;28;20215;-73
2023/03/23 02:06:22;;;;;;;1.50;0.70;;;12.60;99.90;;;11.92;100.00;96783.41;5028277;28;20064;-73
2023/03/23 02:08:50;;;;;;;5.68;0.90;;;12.60;99.90;;;12.03;100.00;96770.56;5027530;28;20053;-73
2023/03/23 02:11:20;;;;;;;1.83;0.75;;;12.50;99.90;;;11.95;100.00;96754.63;5045613;28;20068;-73
2023/03/23 02:13:47;;;;;;;2.17;0.57;;;12.60;99.90;;;11.89;100.00;96758.44;5042228;28;20051;-74
2023/03/23 02:16:34;;;;;;;3.45;0.90;;;12.50;99.90;;;11.87;100.00;96760.28;5026989;28;20099;-74
2023/03/23 02:19:46;;;;;;;1.77;0.80;;;12.50;99.90;;;11.94;100.00;96768.53;5029546;28;20064;-74
2023/03/23 02:22:36;;;;;;;2.08;0.80;;;12.50;99.90;;;11.90;100.00;96767.88;5044779;28;20156;-74
2023/03/23 02:25:47;;;;;;;2.67;0.80;;;12.50;99.90;;;11.83;100.00;96761.34;5041199;28;20098;-74
2023/03/23 02:28:31;;;;;;;1.38;0.63;;;12.50;99.90;;;11.86;100.00;96770.72;5040779;28;20087;-73
2023/03/23 02:31:31;;;;;;;2.10;0.70;;;12.50;99.90;;;11.88;100.00;96755.91;5025362;28;20057;-74
2023/03/23 02:34:33;;;;;;;2.78;1.25;;;12.50;99.90;;;11.90;100.00;96754.88;5054739;28;20041;-73
2023/03/23 02:37:05;;;;;;;1.90;0.73;;;12.50;99.90;;;11.89;100.00;96755.00;5030480;28;22035;-73
2023/03/23 02:39:34;;;;;;;1.88;0.80;;;12.50;99.90;;;11.99;100.00;96747.47;5030890;28;20051;-74
2023/03/23 02:42:09;;;;;;;1.27;0.70;;;12.50;99.90;;;11.87;100.00;96739.47;5031926;28;20500;-73
2023/03/23 02:44:40;;;;;;;3.03;0.70;;;12.50;99.90;;;11.91;100.00;96735.75;5031887;28;20130;-73
2023/03/23 02:47:14;;;;;;;2.25;0.77;;;12.50;99.90;;;11.95;100.00;96735.56;5029491;28;20045;-73
2023/03/23 02:49:43;;;;;;;4.43;0.73;;;12.50;99.90;;;11.91;100.00;96721.94;5066393;28;20044;-73
2023/03/23 02:52:15;;;;;;;1.75;0.70;;;12.50;99.90;;;11.87;100.00;96742.06;5025447;28;20471;-73
2023/03/23 02:54:44;;;;;;;2.15;0.82;;;12.50;99.90;;;12.00;100.00;96749.16;5060869;28;20044;-73
2023/03/23 02:57:10;;;;;;;1.83;0.70;;;12.60;99.90;;;11.94;100.00;96737.34;5033008;28;20075;-73
2023/03/23 02:59:36;;;;;;;1.58;0.77;;;12.60;99.90;;;11.97;100.00;96738.91;5031663;28;20392;-73
2023/03/23 03:02:13;;;;;;;2.80;0.75;;;12.50;99.90;;;11.92;100.00;96747.00;5045812;28;20049;-73
2023/03/23 03:04:40;;;;;;;3.15;0.70;;;12.50;99.90;;;12.00;100.00;96736.97;5048222;28;20547;-73
2023/03/23 03:07:16;;;;;;;2.72;0.95;;;12.50;99.90;;;11.98;100.00;96743.19;5045155;28;20049;-73
2023/03/23 03:09:55;;;;;;;1.52;0.65;;;12.50;99.90;;;12.02;100.00;96740.31;5014511;28;20053;-73
2023/03/23 03:12:41;;;;;;;2.75;0.90;;;12.50;99.90;;;12.10;100.00;96738.06;5046126;28;20546;-73
2023/03/23 03:15:17;;;;;;;3.00;1.00;;;12.60;99.90;;;11.99;100.00;96730.06;5047682;28;20060;-73
2023/03/23 03:18:12;;;;;;;2.42;0.90;;;12.60;99.90;;;11.99;100.00;96742.25;5041975;28;20063;-73
2023/03/23 03:20:46;;;;;;;1.60;0.80;;;12.60;99.90;;;12.00;100.00;96739.56;5040600;28;20056;-73
2023/03/23 03:23:14;;;;;;;2.25;1.00;;;12.60;99.90;;;12.14;100.00;96739.53;5030234;28;20619;-73
2023/03/23 03:25:47;;;;;;;1.48;0.70;;;12.50;99.90;;;12.01;100.00;96748.19;5031763;28;20786;-73
2023/03/23 03:28:21;;;;;;;3.40;0.85;;;12.50;99.90;;;12.08;100.00;96737.31;5050910;28;20103;-73
2023/03/23 03:30:56;;;;;;;1.73;0.93;;;12.60;99.90;;;11.87;100.00;96738.63;5048844;28;20052;-73
2023/03/23 03:33:27;;;;;;;2.08;0.70;;;12.50;99.90;;;11.87;100.00;96739.47;5051162;28;20053;-73
2023/03/23 03:35:59;;;;;;;1.80;0.70;;;12.50;99.90;;;11.78;100.00;96747.81;5046706;28;20534;-73
2023/03/23 03:38:27;;;;;;;3.08;0.80;;;12.40;99.90;;;11.78;100.00;96740.00;5061144;28;20190;-73
2023/03/23 03:40:53;;;;;;;1.85;0.80;;;12.40;99.90;;;11.59;100.00;96753.28;5044098;28;20052;-74
2023/03/23 03:43:19;;;;;;;2.00;0.80;;;12.30;99.90;;;11.56;100.00;96763.84;5044488;28;20195;-73
2023/03/23 03:45:45;;;;;;;3.33;0.90;;;12.30;99.90;;;11.47;100.00;96769.59;5049372;28;20040;-73
2023/03/23 03:48:12;;;;;;;3.75;0.95;;;12.20;99.90;;;11.42;100.00;96779.44;5013707;28;20079;-73
2023/03/23 03:50:38;;;;;;;2.72;0.90;;;12.20;99.90;;;11.22;100.00;96775.38;5036173;28;20095;-72
2023/03/23 03:53:06;;;;;;;1.90;0.80;;;12.10;99.90;;;11.13;100.00;96769.00;5030480;28;20510;-73
2023/03/23 03:55:38;;;;;;;2.15;0.88;;;12.00;99.90;;;11.09;100.00;96783.06;5044956;28;20053;-72
2023/03/23 03:58:04;;;;;;;1.83;0.77;;;11.90;99.90;;;11.09;100.00;96793.44;5060603;28;20499;-73
2023/03/23 04:00:30;;;;;;;5.53;1.50;;;;;;;11.03;100.00;96799.81;5030611;28;20049;-73
2023/03/23 04:02:59;;;;;;;2.42;0.93;;;11.70;99.90;;;10.98;100.00;96798.41;5047145;28;20060;-73
2023/03/23 04:05:28;;;;;;;3.38;0.90;;;11.70;99.90;;;10.92;100.00;96803.94;5033418;28;20102;-73
2023/03/23 04:08:01;;;;;;;2.92;0.98;;;11.70;99.90;;;10.86;100.00;96802.56;5029789;28;20045;-72
2023/03/23 04:10:28;;;;;;;2.15;0.80;;;11.60;99.90;;;10.84;100.00;96804.41;5042520;28;20037;-73
2023/03/23 04:12:55;;;;;;;2.60;0.70;;;11.60;99.90;;;10.84;100.00;96813.00;5032917;28;20044;-72
2023/03/23 04:15:21;;;;;;;3.63;0.90;;;11.50;99.90;;;11.05;100.00;96804.94;5026308;28;20058;-72
2023/03/23 04:17:47;;;;;;;2.72;1.10;;;11.50;99.90;;;10.84;100.00;96807.00;5029830;28;20123;-74
2023/03/23 04:20:17;;;;;;;2.35;1.00;;;11.50;99.90;;;10.84;100.00;96815.59;5046779;28;20198;-72
2023/03/23 04:22:51;;;;;;;2.33;1.08;;;11.50;99.90;;;10.81;100.00;96825.31;5029291;28;20061;-73
2023/03/23 04:25:21;;;;;;;3.28;1.30;;;11.50;99.90;;;10.87;100.00;96822.38;5060848;28;20171;-73
2023/03/23 04:27:54;;;;;;;4.18;1.20;;;11.50;99.90;;;10.87;100.00;96830.16;5007600;28;20065;-74
2023/03/23 04:30:23;;;;;;;4.82;1.33;;;11.40;99.90;;;10.79;100.00;96838.41;5044503;28;20045;-73
2023/03/23 04:32:51;;;;;;;3.65;1.00;;;11.40;99.90;;;10.76;100.00;96841.13;5045536;28;20084;-73
2023/03/23 04:35:20;;;;;;;2.90;1.10;;;11.30;99.90;;;10.74;100.00;96842.16;5043973;28;20056;-73
2023/03/23 04:37:47;;;;;;;2.67;1.02;;;11.30;99.90;;;10.64;100.00;96831.44;5026692;28;20059;-73
2023/03/23 04:40:14;;;;;;;3.47;1.42;;;11.30;99.90;;;10.64;100.00;96860.00;5030723;28;20509;-73
2023/03/23 04:42:45;;;;;;;2.40;0.90;;;11.30;99.90;;;10.60;100.00;96871.44;5030849;28;20052;-73
2023/03/23 04:45:14;;;;;;;3.42;1.10;;;11.20;99.90;;;10.57;100.00;96869.03;5039169;28;20095;-73
2023/03/23 04:47:41;;;;;;;2.63;1.00;;;11.10;99.90;;;10.37;100.00;96864.91;5033031;28;20129;-73
2023/03/23 04:50:12;;;;;;;2.88;1.38;;;11.10;99.90;;;10.37;100.00;96864.91;5060325;28;20132;-73
2023/03/23 04:52:44;;;;;;;4.40;1.40;;;11.10;99.90;;;10.37;100.00;96867.50;5028900;28;20044;-72
2023/03/23 04:55:12;;;;;;;4.93;1.53;;;11.00;99.90;;;10.23;100.00;96868.19;5031610;28;20143;-72
2023/03/23 04:57:38;;;;;;;2.85;1.30;;;10.90;99.90;;;10.26;100.00;96881.00;5023227;28;20605;-72
2023/03/23 05:00:08;;;;;;;4.07;1.27;;;10.90;99.90;;;10.29;100.00;96882.66;5049403;28;20053;-72
2023/03/23 05:02:39;;;;;;;4.15;1.70;;;10.90;99.90;;;10.29;100.00;96875.69;5034041;28;20451;-72
2023/03/23 05:05:07;;;;;;;4.30;1.38;;;10.90;99.90;;;10.21;100.00;96870.84;5046003;28;20052;-72
2023/03/23 05:07:34;;;;;;;3.25;1.13;;;10.90;99.90;;;10.25;100.00;96872.38;5032905;28;20132;-73
2023/03/23 05:10:00;;;;;;;5.05;1.42;;;10.90;99.90;;;10.27;100.00;96885.28;5031304;28;20038;-74
2023/03/23 05:12:26;;;;;;;7.10;1.45;;;10.80;99.90;;;10.17;100.00;96884.06;5045541;28;20042;-72
2023/03/23 05:14:52;;;;;;;3.22;1.00;;;10.80;99.90;;;10.20;100.00;96884.75;5029743;28;20139;-72
2023/03/23 05:17:18;;;;;;;3.13;1.30;;;10.80;99.90;;;10.20;100.00;96892.53;5030043;28;20110;-72
2023/03/23 05:19:47;;;;;;;5.25;1.30;;;10.80;99.90;;;10.14;100.00;96894.59;5028770;28;20080;-72
2023/03/23 05:22:16;;;;;;;3.05;1.50;;;10.80;99.90;;;10.13;100.00;96903.31;5027992;28;20121;-72
2023/03/23 05:24:42;;;;;;;3.38;1.60;;;10.80;99.90;;;10.16;100.00;96916.94;5009830;28;20050;-72
2023/03/23 05:27:10;;;;;;;5.85;1.75;;;10.70;99.90;;;10.08;100.00;96903.56;5059132;28;20045;-73
2023/03/23 05:29:40;;;;;;;3.60;1.83;;;10.70;99.90;;;9.91;100.00;96908.75;5047446;28;20045;-72
2023/03/23 05:32:07;;;;;;;3.17;1.38;;;10.60;99.90;;;9.87;100.00;96912.41;5031444;28;20065;-72
2023/03/23 05:34:35;;;;;;;3.70;1.67;;;10.60;99.90;;;9.83;100.00;96925.53;5046471;28;20680;-72
2023/03/23 05:37:04;;;;;;;4.20;1.63;;;10.60;99.90;;;9.83;100.00;96943.69;5029845;28;20053;-72
2023/03/23 05:39:32;;;;;;;3.85;1.90;;;10.50;99.90;;;9.88;100.00;96950.41;5029269;28;20151;-72
2023/03/23 05:42:01;;;;;;;2.83;1.60;;;10.50;99.90;;;9.88;100.00;96955.56;5030033;28;20041;-72
2023/03/23 05:44:26;;;;;;;5.18;1.63;;;10.40;99.90;;;9.79;100.00;96952.50;5037889;28;20115;-72
2023/03/23 05:46:52;;;;;;;3.80;1.73;;;10.50;99.90;;;9.77;100.00;96956.09;5043656;28;20139;-72
2023/03/23 05:49:18;;;;;;;4.72;1.77;;;10.50;99.90;;;9.76;100.00;96955.28;5042639;28;20084;-72
2023/03/23 05:51:49;;;;;;;4.03;1.90;;;10.40;99.90;;;9.76;100.00;96973.41;5047608;28;20053;-72
2023/03/23 05:54:16;;;;;;;4.70;1.60;;;10.40;99.90;;;9.68;100.00;96967.75;5040791;28;20407;-72
2023/03/23 05:56:42;;;;;;;4.03;1.63;;;10.40;99.90;;;9.64;100.00;96981.75;5025325;28;20484;-72
2023/03/23 05:59:10;;;;;;;3.30;1.63;;;10.40;99.90;;;9.62;100.00;96986.19;5046808;28;20041;-72
2023/03/23 06:01:37;;;;;;;3.75;1.98;;;10.40;99.90;;;9.60;100.00;96994.03;5007381;28;20072;-72
2023/03/23 06:04:04;;;;;;;6.47;2.00;;;10.40;99.90;;;9.56;100.00;96997.69;5029456;28;20041;-72
2023/03/23 06:06:32;;;;;;;4.03;1.75;;;10.30;99.90;;;9.61;100.00;97000.88;5021936;28;20505;-72
2023/03/23 06:09:03;;;;;;;5.70;2.28;;;10.30;99.90;;;9.57;100.00;97003.69;5041833;28;20037;-72
2023/03/23 06:11:29;;;;;;;4.50;2.03;;;10.30;99.90;;;9.56;100.00;97002.03;5024782;28;20842;-72
2023/03/23 06:13:55;;;;;;;4.65;2.08;;;10.20;99.90;;;9.56;100.00;97009.81;5027021;28;20064;-72
2023/03/23 06:16:21;;;;;;;3.45;1.92;;;10.20;99.90;;;9.51;100.00;97010.03;5048835;28;20064;-71
2023/03/23 06:18:48;;;;;;;4.38;1.80;;;10.20;99.90;;;9.58;100.00;97008.00;5025286;28;20397;-71
2023/03/23 06:21:14;;;;;;;4.40;2.00;;;10.20;99.90;;;9.58;100.00;97014.00;5027809;28;20045;-71
2023/03/23 06:23:40;;;;;;;4.45;2.00;;;10.20;99.90;;;9.60;100.00;97009.59;5048640;28;20596;-72
2023/03/23 06:26:08;;;;;;;6.80;2.13;;;10.20;99.90;;;9.65;100.00;97004.19;5032917;28;20049;-72
2023/03/23 06:28:34;;;;;;;4.15;1.95;;;10.20;99.90;;;9.60;100.00;96998.38;5047671;28;20048;-72
2023/03/23 06:31:06;;;;;;;10.20;2.42;;;10.20;99.90;;;9.56;100.00;96994.25;5017426;28;20439;-72
2023/03/23 06:33:33;;;;;;;6.13;2.38;;;10.20;99.90;;;9.50;100.00;96979.84;5031934;28;20128;-72
2023/03/23 06:36:00;;;;;;;4.85;2.65;;;10.20;99.90;;;9.52;100.00;96977.19;5044565;28;20140;-72
2023/03/23 06:38:26;;;;;;;5.05;2.30;;;10.20;99.90;;;9.57;100.00;96972.63;5044671;28;20084;-73
2023/03/23 06:40:53;;;;;;;6.13;2.20;;;10.20;99.90;;;9.66;100.00;96971.34;5047172;28;20045;-72
2023/03/23 06:43:20;;;;;;;4.18;2.08;;;10.20;99.90;;;9.66;100.00;96971.34;5031871;28;20057;-71
2023/03/23 06:45:46;;;;;;;4.57;2.20;;;10.10;99.90;;;9.66;100.00;96955.78;5049454;28;20071;-73
2023/03/23 06:48:13;;;;;;;7.13;2.50;;;10.20;99.90;;;9.58;100.00;96959.59;5031238;28;20044;-73
2023/03/23 06:50:42;;;;;;;6.18;2.35;;;10.20;99.90;;;9.59;100.00;96961.25;5061104;28;20054;-73
2023/03/23 06:53:08;;;;;;;3.80;1.83;;;10.20;99.90;;;9.64;100.00;96968.81;5032868;28;20570;-73
2023/03/23 06:55:34;;;;;;;4.72;2.33;;;10.10;99.90;;;9.58;100.00;96967.38;5058386;28;20077;-73
2023/03/23 06:58:01;;;;;;;4.10;1.92;;;10.20;99.90;;;9.64;100.00;96956.69;5060246;28;20504;-73
2023/03/23 07:00:27;;;;;;;5.07;2.22;;;10.20;99.90;;;9.74;100.00;96944.13;5044594;28;20060;-72
2023/03/23 07:02:53;;;;;;;4.57;1.75;;;10.20;99.90;;;9.86;100.00;96950.47;5030370;28;20072;-73
2023/03/23 07:05:19;;;;;;;6.18;2.33;;;10.10;99.90;;;9.76;100.00;96949.22;5044479;28;20515;-73
2023/03/23 07:07:45;;;;;;;4.43;1.60;;;10.20;99.90;;;9.83;100.00;96942.84;5030305;28;20478;-73
2023/03/23 07:10:11;;;;;;;5.78;1.98;;;10.40;99.90;;;9.78;100.00;96948.25;5039347;28;20045;-73
2023/03/23 07:12:37;;;;;;;4.07;1.73;;;10.40;99.90;;;9.79;100.00;96952.50;5038000;28;20456;-74
2023/03/23 07:15:04;;;;;;;3.92;1.67;;;10.40;99.90;;;9.77;100.00;96959.53;5038010;28;20049;-73
2023/03/23 07:17:31;;;;;;;2.10;1.45;;;10.40;99.90;;;9.78;100.00;96948.25;5046017;28;20454;-73
2023/03/23 07:19:57;;;;;;;6.28;1.70;;;10.30;99.90;;;9.78;100.00;96970.72;5047786;28;20087;-73
2023/03/23 07:22:23;;;;;;;5.63;1.65;;;10.30;99.90;;;9.90;100.00;96977.06;5044818;28;20456;-72
2023/03/23 07:24:49;;;;;;;9.15;1.50;;;10.30;99.90;;;9.91;100.00;96982.16;5057888;28;20068;-74
2023/03/23 07:27:15;;;;;;;7.03;1.80;;;10.30;99.90;;;9.79;100.00;96983.63;5061216;28;20045;-73
2023/03/23 07:29:41;;;;;;;8.68;1.92;;;10.30;99.90;;;9.96;100.00;96998.31;5047730;28;20113;-73
2023/03/23 07:32:11;;;;;;;4.05;1.70;;;10.30;99.90;;;9.97;100.00;97000.03;5048033;28;20045;-73
2023/03/23 07:34:38;;;;;;;3.83;1.50;;;10.40;99.90;;;9.96;100.00;97008.69;5045141;28;20064;-73
2023/03/23 07:37:05;;;;;;;5.07;1.70;;;10.40;99.90;;;9.93;100.00;97001.09;5040549;28;20481;-72
2023/03/23 07:39:33;;;;;;;9.00;2.20;;;10.30;99.90;;;9.92;100.00;97002.00;5039852;28;20117;-72
2023/03/23 07:41:59;;;;;;;5.05;2.13;;;10.40;99.90;;;10.04;100.00;96998.81;5038028;28;20053;-75
2023/03/23 07:44:26;;;;;;;6.45;2.85;;;10.40;99.90;;;10.22;100.00;97004.81;5023819;28;20067;-75
2023/03/23 07:46:52;;;;;;;3.97;1.92;;;10.40;99.90;;;10.19;100.00;97007.56;5030501;28;20043;-75
2023/03/23 07:49:19;;;;;;;6.35;2.13;;;10.50;99.90;;;10.20;100.00;96990.25;5028305;28;20496;-75
2023/03/23 07:51:45;;;;;;;2.92;1.33;;;10.60;99.90;;;10.32;100.00;97014.78;5024172;28;20380;-76
2023/03/23 07:54:12;;;;;;;4.28;1.50;;;10.60;99.90;;;10.31;100.00;97006.16;5026602;28;20049;-75
2023/03/23 07:56:39;;;;;;;4.82;1.60;;;10.70;99.90;;;10.33;100.00;97004.31;5030569;28;20061;-75
2023/03/23 07:59:06;;;;;;;3.97;1.70;;;10.80;99.90;;;10.28;100.00;97008.84;5044809;28;20530;-76
2023/03/23 08:01:33;;;;;;;4.30;1.63;;;10.80;99.90;;;10.30;100.00;97004.47;5044844;28;20056;-76
2023/03/23 08:04:00;;;;;;;6.28;2.05;;;10.90;99.90;;;10.33;100.00;97006.06;5007522;28;20396;-75
2023/03/23 08:06:27;;;;;;;4.15;1.80;;;10.80;99.90;;;10.36;100.00;97019.72;5044885;28;20041;-75
2023/03/23 08:08:53;;;;;;;4.30;1.73;;;10.90;99.90;;;10.50;100.00;97025.97;5029505;28;20044;-75
2023/03/23 08:11:20;;;;;;;3.95;1.73;;;10.80;99.90;;;10.48;100.00;97028.63;5040759;28;20540;-75
2023/03/23 08:13:47;;;;;;;3.95;1.77;;;10.90;99.90;;;10.42;100.00;97023.75;5029515;28;20041;-75
2023/03/23 08:16:13;;;;;;;3.80;1.95;;;10.90;99.90;;;10.42;100.00;97029.81;5028008;28;20071;-74
2023/03/23 08:18:40;;;;;;;3.78;1.40;;;10.80;99.90;;;10.39;100.00;97042.91;5046133;28;20106;-75
2023/03/23 08:21:09;;;;;;;4.65;1.90;;;10.90;99.90;;;10.30;100.00;97051.16;5041573;28;20143;-76
2023/03/23 08:23:39;;;;;;;3.67;1.77;;;10.90;99.90;;;10.32;100.00;97045.91;5022190;28;20084;-75
2023/03/23 08:26:07;;;;;;;3.65;1.40;;;10.90;99.90;;;10.45;100.00;97054.75;5039398;28;20531;-75
2023/03/23 08:28:37;;;;;;;5.80;1.95;;;10.90;99.90;;;10.37;100.00;97043.91;5044657;28;20136;-74
2023/03/23 08:31:09;;;;;;;4.35;1.45;;;10.90;99.90;;;10.37;100.00;97055.13;5024645;28;20049;-75
2023/03/23 08:33:38;;;;;;;3.92;1.80;;;10.90;99.90;;;10.32;100.00;97057.09;5024858;28;20049;-76
2023/03/23 08:36:05;;;;;;;4.78;1.40;;;10.90;99.90;;;10.34;100.00;97067.41;5024389;28;20061;-76
2023/03/23 08:38:32;;;;;;;4.38;1.73;;;;;;;10.21;100.00;97067.13;5023885;28;20096;-76
2023/03/23 08:41:05;;;;;;;6.13;1.73;;;10.80;99.90;;;10.16;100.00;97061.34;5039693;28;20114;-75
2023/03/23 08:43:32;;;;;;;3.47;1.40;;;10.70;99.90;;;10.32;100.00;97069.25;5023612;28;20057;-75
2023/03/23 08:45:59;;;;;;;4.35;1.70;;;10.70;99.90;;;10.20;100.00;97068.06;5039366;28;20044;-75
2023/03/23 08:48:25;;;;;;;3.08;1.52;;;10.70;99.90;;;10.12;100.00;97073.63;5036224;28;20048;-75
2023/03/23 08:50:54;;;;;;;4.22;1.80;;;10.70;99.90;;;10.15;100.00;97078.66;5020480;28;20049;-75
2023/03/23 08:53:20;;;;;;;3.45;1.77;;;10.70;99.90;;;10.18;100.00;97082.88;5040632;28;20041;-75
2023/03/23 08:55:48;;;;;;;4.90;1.75;;;10.60;99.90;;;10.13;100.00;97090.88;5021497;28;20056;-75
2023/03/23 08:58:15;;;;;;;4.50;2.20;;;10.60;99.90;;;10.03;100.00;97081.84;5018805;28;20885;-74
2023/03/23 09:00:41;;;;;;;4.68;2.25;;;10.50;99.90;;;9.99;100.00;97091.53;5034866;28;20146;-75
2023/03/23 09:03:07;;;;;;;5.13;2.10;;;10.50;99.90;;;10.01;100.00;97079.34;5040124;28;20135;-74
2023/03/23 09:05:33;;;;;;;4.80;2.10;;;10.40;99.90;;;9.90;100.00;97098.88;5022160;28;20053;-74
2023/03/23 09:07:59;;;;;;;4.20;2.17;;;10.40;99.90;;;9.93;100.00;97107.38;5035441;28;20093;-74
2023/03/23 09:10:29;;;;;;;5.78;2.80;;;10.40;99.90;;;9.97;100.00;97095.94;5037596;28;20061;-75
2023/03/23 09:12:57;;;;;;;5.28;2.30;;;10.50;99.90;;;10.10;100.00;97092.75;5023496;28;20049;-74
2023/03/23 09:15:23;;;;;;;4.13;2.17;;;10.50;99.90;;;10.33;100.00;97092.53;5020557;28;20748;-74
2023/03/23 09:17:52;;;;;;;5.88;2.10;;;10.70;99.90;;;10.43;100.00;97087.72;5038766;28;20140;-75
2023/03/23 09:20:23;;;;;;;5.00;1.83;;;10.80;99.90;;;10.29;100.00;97103.97;5022686;28;20063;-75
2023/03/23 09:22:52;;;;;;;10.13;3.53;;;10.70;99.90;;;10.33;100.00;97100.31;5018510;28;20172;-75
2023/03/23 09:25:21;;;;;;;6.07;2.17;;;10.60;99.90;;;10.40;100.00;97099.09;5037882;28;20166;-75
2023/03/23 09:27:56;;;;;;;7.30;1.67;;;10.70;99.90;;;10.49;100.00;97097.78;5037748;28;20212;-75
2023/03/23 09:30:28;;;;;;;4.57;2.08;;;10.80;99.90;;;10.78;100.00;97098.91;5050465;28;20052;-75
2023/03/23 09:32:55;;;;;;;6.00;2.45;;;11.00;99.90;;;10.83;100.00;97090.88;5053592;28;20045;-75
2023/03/23 09:35:22;;;;;;;3.47;2.08;;;11.10;99.90;;;10.88;100.00;97083.72;5024597;28;20052;-75
2023/03/23 09:37:50;;;;;;;3.47;1.73;;;11.20;99.90;;;10.93;100.00;97078.28;5021177;28;20049;-76
2023/03/23 09:40:56;;;;;;;4.97;1.92;;;11.20;99.90;;;10.72;100.00;97078.47;5022596;28;20049;-74
2023/03/23 09:43:47;;;;;;;6.13;1.90;;;11.10;99.90;;;10.67;100.00;97060.53;5037829;28;20045;-75
2023/03/23 09:46:31;;;;;;;4.95;1.90;;;11.10;99.90;;;10.64;100.00;97073.66;5036998;28;20128;-75
2023/03/23 09:49:08;;;;;;;5.63;2.05;;;11.10;99.90;;;10.52;100.00;97095.03;5023904;28;20045;-75
2023/03/23 09:51:41;;;;;;;4.20;1.83;;;11.10;99.90;;;10.65;100.00;97090.91;5020470;28;20052;-75
2023/03/23 09:54:40;;;;;;;4.88;2.00;;;11.00;99.90;;;10.59;100.00;97080.00;5021194;28;20051;-75
2023/03/23 09:57:26;;;;;;;4.10;1.70;;;11.00;99.90;;;10.54;100.00;97088.03;5023135;28;20094;-75
2023/03/23 09:59:56;;;;;;;2.85;1.58;;;10.90;99.90;;;10.50;100.00;97083.06;5041488;28;20040;-75
2023/03/23 10:02:46;;;;;;;4.07;1.60;;;10.90;99.90;;;10.47;100.00;97089.25;5041184;28;20060;-73
2023/03/23 10:05:33;;;;;;;4.88;1.80;;;10.90;99.90;;;10.39;100.00;97125.09;5030344;28;20498;-74
2023/03/23 10:08:02;;;;;;;4.35;1.90;;;10.70;99.90;;;10.33;100.00;97105.50;5020903;28;20049;-74
2023/03/23 10:10:48;;;;;;;3.70;1.55;;;10.70;99.90;;;10.40;100.00;97082.66;5041919;28;20106;-73
2023/03/23 10:13:24;;;;;;;3.40;1.55;;;10.70;99.90;;;10.26;100.00;97123.09;5040470;28;20056;-74
2023/03/23 10:15:51;;;;;;;2.78;1.25;;;10.70;99.90;;;10.27;100.00;97111.78;5039923;28;20041;-74
2023/03/23 10:18:32;;;;;;;6.10;1.85;;;10.60;99.90;;;10.27;100.00;97116.13;5042016;28;20477;-74
2023/03/23 10:21:00;;;;;;;6.25;1.90;;;10.60;99.90;;;10.21;100.00;97109.47;5008613;28;20049;-74
2023/03/23 10:23:48;;;;;;;3.45;1.50;;;10.60;99.90;;;10.11;100.00;97110.84;5024462;28;20121;-76
2023/03/23 10:26:29;;;;;;;3.55;1.50;;;10.70;99.90;;;10.28;100.00;97117.78;5037677;28;20747;-74
2023/03/23 10:29:13;;;;;;;3.40;1.40;;;10.60;99.90;;;10.38;100.00;97119.06;5024903;28;20049;-73